Estación de Illapel

Ultimos registro cada 15 minutos 72
Estación Fecha / Hora Temperatura Humedad Lluvia Velocidad Dirección Radiación Presion
72 Illapel 05-09-2026 17:45 17,6 51 0 1,8 250 21 957,4
71 Illapel 05-09-2026 17:30 18,2 49 0 1,3 248 25 958,5
70 Illapel 05-09-2026 17:15 18,9 49 0 0,4 283 30 959,9
69 Illapel 05-09-2026 17:00 19,2 48 0 0,9 306 56 980,3
68 Illapel 05-09-2026 16:45 19,9 46 0 2,2 287 93 984,4
67 Illapel 05-09-2026 16:30 20,4 47 0 2,2 328 378 985,9
66 Illapel 05-09-2026 16:15 20,5 45 0 2,2 306 434 986,3
65 Illapel 05-09-2026 16:00 20,6 45 0 2,7 269 483 986,4
64 Illapel 05-09-2026 15:45 21,2 44 0 3,1 327 534 986,4
63 Illapel 05-09-2026 15:30 21,4 44 0 0,9 302 584 986,2
62 Illapel 05-09-2026 15:15 21,7 44 0 3,1 298 631 986,2
61 Illapel 05-09-2026 15:00 21,8 44 0 2,7 306 671 986,2
60 Illapel 05-09-2026 14:45 22,3 43 0 3,1 314 710 986,3
59 Illapel 05-09-2026 14:30 22,5 42 0 2,7 304 745 986,3
58 Illapel 05-09-2026 14:15 22,9 41 0 3,6 325 775 986,4
57 Illapel 05-09-2026 14:00 23,2 41 0 3,1 300 800 986,4
56 Illapel 05-09-2026 13:45 23,2 40 0 2,7 293 824 986,6
55 Illapel 05-09-2026 13:30 23,2 38 0 2,2 283 838 986,8
54 Illapel 05-09-2026 13:15 23,1 38 0 2,2 323 854 987
53 Illapel 05-09-2026 13:00 23 36 0 2,2 341 856 987,2
52 Illapel 05-09-2026 12:45 22,7 37 0 2,2 318 865 987,4
51 Illapel 05-09-2026 12:30 22,7 37 0 0,9 325 865 987,6
50 Illapel 05-09-2026 12:15 22,3 35 0 2,2 6 860 987,8
49 Illapel 05-09-2026 12:00 22 37 0 0,4 352 134 988,1
48 Illapel 05-09-2026 11:45 21,6 37 0 1,3 354 35 988,4
47 Illapel 05-09-2026 11:30 21,2 41 0 1,8 351 35 988,6
46 Illapel 05-09-2026 11:15 20,1 41 0 1,3 33 35 988,8
45 Illapel 05-09-2026 11:00 19,5 41 0 0,9 29 35 989,1
44 Illapel 05-09-2026 10:45 18,8 42 0 0,4 30 35 989,4
43 Illapel 05-09-2026 10:30 18 44 0 0,9 30 35 989,4
42 Illapel 05-09-2026 10:15 17,3 45 0 1,3 30 35 989,7
41 Illapel 05-09-2026 10:00 16,4 46 0 0,9 33 613 989,9
40 Illapel 05-09-2026 09:45 16,1 47 0 0,9 67 478 990
39 Illapel 05-09-2026 09:30 15,2 48 0 1,3 69 520 990,6
38 Illapel 05-09-2026 09:15 14,2 50 0 0,4 217 415 990,7
37 Illapel 05-09-2026 09:00 13,4 51 0 0,4 111 418 991
36 Illapel 05-09-2026 08:45 12,5 48 0 1,8 137 366 991
35 Illapel 05-09-2026 08:30 11,5 41 0 0,4 101 260 991,1
34 Illapel 05-09-2026 08:15 10,4 30 0 0 108 241 991,1
33 Illapel 05-09-2026 08:00 9,3 30 0 1,8 115 113 990,9
32 Illapel 05-09-2026 07:45 8,9 31 0 0,4 104 123 990,8
31 Illapel 05-09-2026 07:30 7,6 31 0 0,4 133 54 990,5
30 Illapel 05-09-2026 07:15 7,2 29 0 0,9 127 12 990,6
29 Illapel 05-09-2026 07:00 7,6 30 0 0 119 0 990,5
28 Illapel 05-09-2026 06:45 7,8 29 0 0 119 0 990,4
27 Illapel 05-09-2026 06:30 8 31 0 0,4 163 0 990,4
26 Illapel 05-09-2026 06:15 7,7 30 0 0,4 156 0 990,4
25 Illapel 05-09-2026 06:00 8 30 0 0,4 138 0 990,3
24 Illapel 05-09-2026 05:45 7,6 31 0 0,4 141 0 990,4
23 Illapel 05-09-2026 05:30 7,2 29 0 0 130 0 990,5
22 Illapel 05-09-2026 05:15 7,5 29 0 0 130 0 990,5
21 Illapel 05-09-2026 05:00 8 29 0 0 134 0 990,5
20 Illapel 05-09-2026 04:45 8,1 30 0 0 135 0 990,5
19 Illapel 05-09-2026 04:30 7,6 29 0 0 154 0 990,5
18 Illapel 05-09-2026 04:15 7,8 29 0 0,4 155 0 990,6
17 Illapel 05-09-2026 04:00 8,2 29 0 0,4 155 0 990,7
16 Illapel 05-09-2026 03:45 8,3 28 0 0,4 190 0 990,7
15 Illapel 05-09-2026 03:30 8,7 29 0 0 123 0 990,8
14 Illapel 05-09-2026 03:15 8,5 30 0 0 118 0 990,9
13 Illapel 05-09-2026 03:00 8,5 29 0 0 98 0 991
12 Illapel 05-09-2026 02:45 8,5 30 0 0 163 0 991,3
11 Illapel 05-09-2026 02:30 8,8 29 0 0,4 202 0 991,5
10 Illapel 05-09-2026 02:15 8,6 31 0 0 219 0 991,7
9 Illapel 05-09-2026 02:00 8,7 32 0 0 219 0 991,9
8 Illapel 05-09-2026 01:45 8,8 31 0 0 219 0 992,1
7 Illapel 05-09-2026 01:30 8,9 32 0 0 220 0 992,2
6 Illapel 05-09-2026 01:15 8,7 34 0 0,9 235 0 992,3
5 Illapel 05-09-2026 01:00 8,8 36 0 0 239 0 992,3
4 Illapel 05-09-2026 00:45 8,9 36 0 0 239 0 992,4
3 Illapel 05-09-2026 00:30 9,3 38 0 0 238 0 992,6
2 Illapel 05-09-2026 00:15 9,4 38 0 0 238 0 992,8
1 Illapel 05-09-2026 00:00 9,7 39 0 0 238 0 992,9